sensor_id;sensor_type;location;lat;lon;timestamp;temperature;humidity
52439;DHT22;38359;53.150;6.504;2023-04-30T00:02:32;7.50;99.90
52439;DHT22;38359;53.150;6.504;2023-04-30T00:12:57;7.40;99.90
52439;DHT22;38359;53.150;6.504;2023-04-30T00:23:23;7.30;99.90
52439;DHT22;38359;53.150;6.504;2023-04-30T00:33:49;7.30;99.90
52439;DHT22;38359;53.150;6.504;2023-04-30T00:44:15;7.10;99.90
52439;DHT22;38359;53.150;6.504;2023-04-30T00:54:40;6.80;99.90
52439;DHT22;38359;53.150;6.504;2023-04-30T01:05:07;6.90;99.90
52439;DHT22;38359;53.150;6.504;2023-04-30T01:15:50;6.60;99.90
52439;DHT22;38359;53.150;6.504;2023-04-30T01:26:35;6.40;99.90
52439;DHT22;38359;53.150;6.504;2023-04-30T01:58:33;6.50;99.90
52439;DHT22;38359;53.150;6.504;2023-04-30T02:09:00;6.30;99.90
52439;DHT22;38359;53.150;6.504;2023-04-30T02:19:30;6.30;99.90
52439;DHT22;38359;53.150;6.504;2023-04-30T02:29:56;6.50;99.90
52439;DHT22;38359;53.150;6.504;2023-04-30T02:40:22;6.80;99.90
52439;DHT22;38359;53.150;6.504;2023-04-30T02:50:48;6.80;99.90
52439;DHT22;38359;53.150;6.504;2023-04-30T03:01:14;6.80;99.90
52439;DHT22;38359;53.150;6.504;2023-04-30T03:11:40;6.70;99.90
52439;DHT22;38359;53.150;6.504;2023-04-30T03:22:06;6.90;99.90
52439;DHT22;38359;53.150;6.504;2023-04-30T03:32:32;6.90;99.90
52439;DHT22;38359;53.150;6.504;2023-04-30T03:42:58;6.70;99.90
52439;DHT22;38359;53.150;6.504;2023-04-30T03:53:24;6.60;99.90
52439;DHT22;38359;53.150;6.504;2023-04-30T04:03:50;6.40;99.90
52439;DHT22;38359;53.150;6.504;2023-04-30T04:14:16;6.30;99.90
52439;DHT22;38359;53.150;6.504;2023-04-30T04:24:42;6.30;99.90
52439;DHT22;38359;53.150;6.504;2023-04-30T04:35:08;6.20;99.90
52439;DHT22;38359;53.150;6.504;2023-04-30T04:45:34;6.30;99.90
52439;DHT22;38359;53.150;6.504;2023-04-30T04:56:00;6.50;99.90
52439;DHT22;38359;53.150;6.504;2023-04-30T05:06:25;6.60;99.90
52439;DHT22;38359;53.150;6.504;2023-04-30T05:16:53;6.60;99.90
52439;DHT22;38359;53.150;6.504;2023-04-30T05:27:18;7.10;99.90
52439;DHT22;38359;53.150;6.504;2023-04-30T05:37:44;7.50;99.90
52439;DHT22;38359;53.150;6.504;2023-04-30T05:48:10;7.80;99.90
52439;DHT22;38359;53.150;6.504;2023-04-30T05:58:36;7.90;99.90
52439;DHT22;38359;53.150;6.504;2023-04-30T06:09:02;8.10;99.90
52439;DHT22;38359;53.150;6.504;2023-04-30T06:19:27;8.20;99.90
52439;DHT22;38359;53.150;6.504;2023-04-30T06:29:53;8.70;99.90
52439;DHT22;38359;53.150;6.504;2023-04-30T06:40:19;9.10;99.90
52439;DHT22;38359;53.150;6.504;2023-04-30T06:50:45;9.10;99.90
52439;DHT22;38359;53.150;6.504;2023-04-30T07:01:11;9.00;99.90
52439;DHT22;38359;53.150;6.504;2023-04-30T07:11:37;9.30;99.90
52439;DHT22;38359;53.150;6.504;2023-04-30T07:22:04;9.70;99.90
52439;DHT22;38359;53.150;6.504;2023-04-30T07:32:30;10.00;99.90
52439;DHT22;38359;53.150;6.504;2023-04-30T07:42:56;10.20;99.90
52439;DHT22;38359;53.150;6.504;2023-04-30T07:53:22;10.30;99.90
52439;DHT22;38359;53.150;6.504;2023-04-30T08:03:48;10.40;99.90
52439;DHT22;38359;53.150;6.504;2023-04-30T08:14:14;10.80;99.90
52439;DHT22;38359;53.150;6.504;2023-04-30T08:24:40;10.70;99.90
52439;DHT22;38359;53.150;6.504;2023-04-30T08:35:06;11.30;99.90
52439;DHT22;38359;53.150;6.504;2023-04-30T08:45:33;11.20;99.90
52439;DHT22;38359;53.150;6.504;2023-04-30T08:56:02;11.40;99.90
52439;DHT22;38359;53.150;6.504;2023-04-30T09:06:28;12.00;99.90
52439;DHT22;38359;53.150;6.504;2023-04-30T09:16:54;12.40;99.90
52439;DHT22;38359;53.150;6.504;2023-04-30T09:27:21;12.50;99.90
52439;DHT22;38359;53.150;6.504;2023-04-30T09:37:47;13.00;99.90
52439;DHT22;38359;53.150;6.504;2023-04-30T09:48:23;12.80;99.90
52439;DHT22;38359;53.150;6.504;2023-04-30T09:58:53;13.30;99.90
52439;DHT22;38359;53.150;6.504;2023-04-30T10:09:20;13.30;99.90
52439;DHT22;38359;53.150;6.504;2023-04-30T10:19:48;13.60;99.90
52439;DHT22;38359;53.150;6.504;2023-04-30T10:30:15;14.20;99.90
52439;DHT22;38359;53.150;6.504;2023-04-30T10:40:45;14.40;99.90
52439;DHT22;38359;53.150;6.504;2023-04-30T10:51:13;13.70;99.90
52439;DHT22;38359;53.150;6.504;2023-04-30T11:01:59;14.50;99.90
52439;DHT22;38359;53.150;6.504;2023-04-30T11:12:27;14.70;99.90
52439;DHT22;38359;53.150;6.504;2023-04-30T11:23:12;14.60;99.90
52439;DHT22;38359;53.150;6.504;2023-04-30T11:33:39;15.20;99.90
52439;DHT22;38359;53.150;6.504;2023-04-30T11:44:22;15.30;99.90
52439;DHT22;38359;53.150;6.504;2023-04-30T11:54:54;15.10;99.90
52439;DHT22;38359;53.150;6.504;2023-04-30T12:05:22;16.00;99.90
52439;DHT22;38359;53.150;6.504;2023-04-30T12:15:58;16.50;99.90
52439;DHT22;38359;53.150;6.504;2023-04-30T12:26:34;16.80;99.90
52439;DHT22;38359;53.150;6.504;2023-04-30T12:37:01;16.90;99.90
52439;DHT22;38359;53.150;6.504;2023-04-30T12:47:28;17.20;99.90
52439;DHT22;38359;53.150;6.504;2023-04-30T12:58:09;17.90;99.90
52439;DHT22;38359;53.150;6.504;2023-04-30T13:08:36;18.20;99.90
52439;DHT22;38359;53.150;6.504;2023-04-30T13:19:01;19.00;99.90
52439;DHT22;38359;53.150;6.504;2023-04-30T13:29:29;19.40;99.90
52439;DHT22;38359;53.150;6.504;2023-04-30T13:39:56;19.60;99.90
52439;DHT22;38359;53.150;6.504;2023-04-30T13:50:23;20.60;97.90
52439;DHT22;38359;53.150;6.504;2023-04-30T14:00:49;21.90;94.50
52439;DHT22;38359;53.150;6.504;2023-04-30T14:11:15;22.50;91.00
52439;DHT22;38359;53.150;6.504;2023-04-30T14:21:41;22.20;88.10
52439;DHT22;38359;53.150;6.504;2023-04-30T14:32:07;23.30;82.90
52439;DHT22;38359;53.150;6.504;2023-04-30T14:42:33;23.80;82.00
52439;DHT22;38359;53.150;6.504;2023-04-30T14:52:58;24.00;75.00
52439;DHT22;38359;53.150;6.504;2023-04-30T15:03:24;25.20;77.40
52439;DHT22;38359;53.150;6.504;2023-04-30T15:13:54;24.20;71.30
52439;DHT22;38359;53.150;6.504;2023-04-30T15:24:20;22.50;70.20
52439;DHT22;38359;53.150;6.504;2023-04-30T15:34:46;25.60;70.40
52439;DHT22;38359;53.150;6.504;2023-04-30T15:45:12;25.80;67.50
52439;DHT22;38359;53.150;6.504;2023-04-30T15:55:38;26.90;68.20
52439;DHT22;38359;53.150;6.504;2023-04-30T16:06:04;25.20;66.60
52439;DHT22;38359;53.150;6.504;2023-04-30T16:16:30;26.80;66.10
52439;DHT22;38359;53.150;6.504;2023-04-30T16:26:56;24.80;64.90
52439;DHT22;38359;53.150;6.504;2023-04-30T16:37:23;25.40;62.10
52439;DHT22;38359;53.150;6.504;2023-04-30T16:47:49;26.50;62.60
52439;DHT22;38359;53.150;6.504;2023-04-30T16:58:15;25.90;62.00
52439;DHT22;38359;53.150;6.504;2023-04-30T17:08:40;25.40;61.70
52439;DHT22;38359;53.150;6.504;2023-04-30T17:19:06;24.60;61.70
52439;DHT22;38359;53.150;6.504;2023-04-30T17:29:32;24.90;62.90
52439;DHT22;38359;53.150;6.504;2023-04-30T17:40:00;23.70;64.10
52439;DHT22;38359;53.150;6.504;2023-04-30T17:50:27;21.40;66.40
52439;DHT22;38359;53.150;6.504;2023-04-30T18:00:53;20.20;79.10
52439;DHT22;38359;53.150;6.504;2023-04-30T18:11:20;19.00;92.80
52439;DHT22;38359;53.150;6.504;2023-04-30T18:21:46;17.90;99.90
52439;DHT22;38359;53.150;6.504;2023-04-30T18:32:12;17.50;99.90
52439;DHT22;38359;53.150;6.504;2023-04-30T18:42:38;17.00;99.90
52439;DHT22;38359;53.150;6.504;2023-04-30T18:53:04;16.50;99.90
52439;DHT22;38359;53.150;6.504;2023-04-30T19:03:31;15.80;99.90
52439;DHT22;38359;53.150;6.504;2023-04-30T19:13:58;15.30;99.90
52439;DHT22;38359;53.150;6.504;2023-04-30T19:24:23;15.00;99.90
52439;DHT22;38359;53.150;6.504;2023-04-30T19:34:49;14.60;99.90
52439;DHT22;38359;53.150;6.504;2023-04-30T19:45:15;14.00;99.90
52439;DHT22;38359;53.150;6.504;2023-04-30T19:55:42;13.90;99.90
52439;DHT22;38359;53.150;6.504;2023-04-30T20:06:08;13.50;99.90
52439;DHT22;38359;53.150;6.504;2023-04-30T20:16:34;13.40;99.90
52439;DHT22;38359;53.150;6.504;2023-04-30T20:27:00;12.80;99.90
52439;DHT22;38359;53.150;6.504;2023-04-30T20:37:26;13.20;99.90
52439;DHT22;38359;53.150;6.504;2023-04-30T20:47:53;12.80;99.90
52439;DHT22;38359;53.150;6.504;2023-04-30T20:58:18;12.70;99.90
52439;DHT22;38359;53.150;6.504;2023-04-30T21:08:45;12.30;99.90
52439;DHT22;38359;53.150;6.504;2023-04-30T21:19:10;12.00;99.90
52439;DHT22;38359;53.150;6.504;2023-04-30T21:29:41;12.50;99.90
52439;DHT22;38359;53.150;6.504;2023-04-30T21:40:08;11.80;99.90
52439;DHT22;38359;53.150;6.504;2023-04-30T21:50:34;11.70;99.90
52439;DHT22;38359;53.150;6.504;2023-04-30T22:01:00;11.60;99.90
52439;DHT22;38359;53.150;6.504;2023-04-30T22:11:26;11.30;99.90
52439;DHT22;38359;53.150;6.504;2023-04-30T22:21:52;11.10;99.90
52439;DHT22;38359;53.150;6.504;2023-04-30T22:32:18;10.80;99.90
52439;DHT22;38359;53.150;6.504;2023-04-30T22:42:44;10.70;99.90
52439;DHT22;38359;53.150;6.504;2023-04-30T22:53:10;10.50;99.90
52439;DHT22;38359;53.150;6.504;2023-04-30T23:03:35;10.40;99.90
52439;DHT22;38359;53.150;6.504;2023-04-30T23:14:02;10.10;99.90
52439;DHT22;38359;53.150;6.504;2023-04-30T23:24:29;10.10;99.90
52439;DHT22;38359;53.150;6.504;2023-04-30T23:34:59;9.90;99.90
52439;DHT22;38359;53.150;6.504;2023-04-30T23:45:25;9.70;99.90
52439;DHT22;38359;53.150;6.504;2023-04-30T23:55:51;9.50;99.90
